Meath Environmental Platform

Observations for Trim Market St

Time AQI Temp °C Hum % Pres Pa CO μg/m³ H₂S μg/m³ NO μg/m³ NO₂ μg/m³ O₃ μg/m³ SO₂ μg/m³ PM1 μg/m³ PM2.5 μg/m³ PM10 μg/m³
Thursday 16 July 2026
01:39 1 17.4 74 43,667 0.07 0 0 4.63 15.77 0 9.26 12.46 17.76
01:38 1 17.4 74 43,636 0.08 0 0 3.03 15.66 0 7.13 10.54 16.56
01:37 1 17.4 74 43,548 0.09 0 0 3.63 16.14 0 7.84 10.06 14.15
01:36 1 17.4 74 43,489 0.07 0 0 3.53 16.27 0 7.84 10.54 16.56
01:35 1 17.4 74 43,550 0.06 0 0 3.33 16.86 0 6.41 8.62 15.35
01:34 1 17.4 74 43,677 0.07 0 0 2.14 21.15 0 8.55 11.5 16.57
01:33 1 17.4 74 43,930 0.07 0 0 10.55 17.03 0 6.41 8.15 11.75
01:32 1 17.4 74 44,341 0.08 0 0 4.85 17.57 0 7.84 12.47 18.99
01:31 1 17.4 74 44,573 0.08 0 0 3.66 19.39 0 7.84 9.6 13.57
01:30 1 17.5 74 44,713 0.07 0 0 4.74 16.67 0 4.99 8.64 14.17
01:29 1 17.5 74 44,892 0.07 0 0.45 5.54 19.57 0 5.7 6.71 9.95
01:28 1 17.5 74 44,884 0.08 0 0 4.05 17.08 0 7.84 10.57 15.39
01:27 1 17.5 74 44,672 0.07 0 0 2.65 24.09 0 6.41 9.6 15.39
01:23 1 17.5 74 44,205 0.08 0 0 4.03 16.63 0 7.84 10.55 14.77
01:22 1 17.6 74 43,973 0.07 0 0 3.89 15.81 0 5.7 7.66 11.15
01:21 1 17.6 74 43,711 0.08 0 0 4.09 16.51 0 7.13 9.58 15.36
01:20 1 17.6 74 43,443 0.07 0 0 4.19 16.8 0 7.13 9.1 13.56
01:19 1 17.6 74 43,241 0.07 0 0 3.69 16.29 0 7.13 9.58 14.16
01:18 1 17.6 74 43,060 0.07 0 0 3.89 17.42 0 6.41 8.62 14.16
01:17 1 17.6 74 42,955 0.08 0 0 4.59 18.73 0 8.55 11.98 16.57